createdAt,value
2023-03-16T00:01:27.140Z,8.18
2023-03-16T00:04:00.316Z,8.13
2023-03-16T00:06:33.259Z,8.13
2023-03-16T00:09:06.267Z,8.15
2023-03-16T00:11:40.982Z,8.11
2023-03-16T00:14:14.371Z,8.17
2023-03-16T00:16:48.017Z,8.16
2023-03-16T00:19:23.643Z,8.11
2023-03-16T00:21:56.518Z,8.13
2023-03-16T00:24:29.923Z,8.18
2023-03-16T00:27:04.569Z,8.22
2023-03-16T00:29:37.619Z,8.24
2023-03-16T00:32:11.775Z,8.29
2023-03-16T00:34:45.068Z,8.33
2023-03-16T00:37:19.237Z,8.35
2023-03-16T00:39:52.852Z,8.34
2023-03-16T00:42:29.403Z,8.34
2023-03-16T00:45:02.407Z,8.32
2023-03-16T00:47:35.362Z,8.31
2023-03-16T00:50:09.091Z,8.28
2023-03-16T00:52:42.293Z,8.25
2023-03-16T00:55:15.776Z,8.25
2023-03-16T00:57:50.366Z,8.31
2023-03-16T01:00:26.708Z,8.29
2023-03-16T01:02:59.806Z,8.28
2023-03-16T01:05:33.567Z,8.26
2023-03-16T01:08:07.363Z,8.28
2023-03-16T01:10:41.516Z,8.27
2023-03-16T01:13:18.115Z,8.22
2023-03-16T01:15:51.889Z,8.24
2023-03-16T01:18:25.256Z,8.20
2023-03-16T01:20:58.226Z,8.16
2023-03-16T01:23:31.837Z,8.13
2023-03-16T01:26:05.152Z,8.14
2023-03-16T01:28:39.877Z,8.04
2023-03-16T01:31:14.474Z,8.09
2023-03-16T01:33:47.478Z,8.08
2023-03-16T01:36:21.158Z,8.01
2023-03-16T01:38:54.444Z,8.05
2023-03-16T01:41:28.313Z,8.06
2023-03-16T01:44:02.708Z,8.03
2023-03-16T01:46:35.935Z,8.06
2023-03-16T01:49:12.401Z,8.10
2023-03-16T01:51:47.867Z,8.14
2023-03-16T01:54:23.270Z,8.13
2023-03-16T01:56:59.350Z,8.15
2023-03-16T01:59:37.003Z,8.17
2023-03-16T02:02:10.857Z,8.23
2023-03-16T02:04:46.827Z,8.24
2023-03-16T02:07:21.843Z,8.25
2023-03-16T02:09:57.335Z,8.31
2023-03-16T02:12:31.620Z,8.28
2023-03-16T02:15:07.194Z,8.27
2023-03-16T02:17:42.537Z,8.27
2023-03-16T02:20:24.053Z,8.31
2023-03-16T02:22:57.231Z,8.30
2023-03-16T02:25:32.480Z,8.32
2023-03-16T02:28:11.216Z,8.28
2023-03-16T02:30:45.589Z,8.24
2023-03-16T02:33:18.859Z,8.19
2023-03-16T02:35:52.233Z,8.22
2023-03-16T02:38:25.660Z,8.21
2023-03-16T02:41:01.495Z,8.19
2023-03-16T02:43:36.151Z,8.16
2023-03-16T02:46:10.907Z,8.07
2023-03-16T02:48:45.555Z,8.07
2023-03-16T02:51:18.833Z,7.98
2023-03-16T02:53:51.889Z,8.02
2023-03-16T02:56:24.796Z,8.02
2023-03-16T02:58:58.718Z,8.01
2023-03-16T03:01:34.859Z,8.01
2023-03-16T03:04:08.031Z,8.03
2023-03-16T03:06:41.760Z,8.05
2023-03-16T03:09:15.182Z,8.04
2023-03-16T03:11:49.000Z,8.04
2023-03-16T03:14:22.247Z,8.00
2023-03-16T03:16:57.271Z,8.02
2023-03-16T03:19:30.414Z,8.06
2023-03-16T03:22:06.511Z,8.01
2023-03-16T03:24:39.432Z,8.04
2023-03-16T03:27:12.283Z,7.96
2023-03-16T03:29:45.435Z,8.02
2023-03-16T03:32:19.832Z,7.99
2023-03-16T03:34:52.994Z,8.02
2023-03-16T03:37:26.345Z,7.95
2023-03-16T03:40:01.063Z,8.02
2023-03-16T03:42:33.917Z,7.98
2023-03-16T03:45:07.918Z,8.00
2023-03-16T03:47:42.695Z,7.97
2023-03-16T03:50:17.246Z,8.02
2023-03-16T03:52:50.332Z,7.96
2023-03-16T03:55:23.578Z,7.98
2023-03-16T03:57:56.547Z,8.00
2023-03-16T04:00:29.765Z,7.99
2023-03-16T04:03:05.094Z,7.96
2023-03-16T04:05:38.656Z,7.96
2023-03-16T04:08:11.841Z,7.93
2023-03-16T04:10:44.802Z,7.88
2023-03-16T04:13:18.340Z,7.85
2023-03-16T04:15:57.310Z,7.84
2023-03-16T04:18:38.476Z,7.81
2023-03-16T04:21:15.988Z,7.74
2023-03-16T04:23:49.224Z,7.71
2023-03-16T04:26:22.634Z,7.74
2023-03-16T04:28:55.892Z,7.71
2023-03-16T04:31:29.457Z,7.75
2023-03-16T04:34:03.887Z,7.77
2023-03-16T04:36:36.940Z,7.62
2023-03-16T04:39:10.515Z,7.72
2023-03-16T04:41:43.404Z,7.68
2023-03-16T04:44:17.497Z,7.72
2023-03-16T04:46:50.993Z,7.60
2023-03-16T04:49:25.271Z,7.61
2023-03-16T04:51:58.144Z,7.56
2023-03-16T04:54:31.186Z,7.58
2023-03-16T04:57:05.793Z,7.51
2023-03-16T04:59:38.940Z,7.57
2023-03-16T05:02:12.200Z,7.56
2023-03-16T05:04:46.523Z,7.56
2023-03-16T05:07:19.759Z,7.57
2023-03-16T05:09:53.322Z,7.60
2023-03-16T05:12:26.869Z,7.57
2023-03-16T05:15:01.847Z,7.52
2023-03-16T05:17:35.741Z,7.49
2023-03-16T05:20:15.436Z,7.45
2023-03-16T05:22:49.831Z,7.37
2023-03-16T05:25:23.759Z,7.43
2023-03-16T05:27:57.069Z,7.46
2023-03-16T05:30:31.218Z,7.43
2023-03-16T05:33:04.891Z,7.35
2023-03-16T05:35:39.370Z,7.36
2023-03-16T05:38:13.148Z,7.32
2023-03-16T05:40:53.020Z,7.31
2023-03-16T05:43:26.313Z,7.23
2023-03-16T05:45:59.934Z,7.28
2023-03-16T05:48:32.915Z,7.28
2023-03-16T05:51:07.526Z,7.22
2023-03-16T05:53:40.682Z,7.21
2023-03-16T05:56:14.092Z,7.23
2023-03-16T05:58:47.006Z,7.19
2023-03-16T06:01:20.299Z,7.28
2023-03-16T06:03:53.390Z,7.15
2023-03-16T06:06:27.852Z,7.11
2023-03-16T06:09:01.417Z,7.21
2023-03-16T06:11:35.626Z,7.15
2023-03-16T06:14:08.765Z,7.19
2023-03-16T06:16:41.999Z,7.19
2023-03-16T06:19:15.062Z,7.30
2023-03-16T06:21:49.452Z,7.34
2023-03-16T06:24:22.622Z,7.25
2023-03-16T06:26:55.837Z,7.30
2023-03-16T06:29:29.775Z,7.21
2023-03-16T06:32:02.758Z,7.28
2023-03-16T06:34:38.257Z,7.19
2023-03-16T06:37:12.790Z,7.08
2023-03-16T06:39:46.359Z,7.10
2023-03-16T06:42:20.488Z,7.21
2023-03-16T06:44:53.443Z,7.17
2023-03-16T06:47:27.192Z,7.12
2023-03-16T06:50:01.390Z,7.15
2023-03-16T06:52:36.665Z,7.20
2023-03-16T06:55:12.522Z,7.09
2023-03-16T06:57:45.896Z,7.14
2023-03-16T07:00:19.298Z,7.09
2023-03-16T07:02:52.264Z,7.15
2023-03-16T07:05:40.031Z,7.13
2023-03-16T07:08:15.307Z,7.12
2023-03-16T07:10:48.196Z,7.20
2023-03-16T07:13:23.839Z,6.78
2023-03-16T07:15:57.557Z,7.17
2023-03-16T07:18:31.834Z,7.15
2023-03-16T07:21:04.939Z,7.12
2023-03-16T07:23:39.276Z,7.17
2023-03-16T07:26:12.866Z,7.12
2023-03-16T07:28:47.487Z,7.15
2023-03-16T07:31:21.041Z,7.05
2023-03-16T07:33:54.654Z,7.03
2023-03-16T07:36:27.971Z,7.05
2023-03-16T07:39:02.695Z,7.05
2023-03-16T07:41:35.930Z,7.16
2023-03-16T07:44:09.010Z,7.08
2023-03-16T07:46:42.622Z,7.06
2023-03-16T07:49:16.830Z,7.08
2023-03-16T07:51:50.021Z,7.13
2023-03-16T07:54:24.424Z,7.10
2023-03-16T07:56:57.507Z,7.14
2023-03-16T07:59:31.465Z,7.04
2023-03-16T08:02:04.983Z,7.10
2023-03-16T08:04:38.258Z,7.22
2023-03-16T08:07:11.625Z,7.23
2023-03-16T08:09:46.160Z,7.29
2023-03-16T08:12:19.634Z,7.31
2023-03-16T08:14:54.617Z,7.19
2023-03-16T08:17:28.009Z,7.24
2023-03-16T08:20:00.937Z,7.21
2023-03-16T08:22:36.745Z,7.26
2023-03-16T08:25:11.621Z,7.14
2023-03-16T08:27:44.694Z,7.19
2023-03-16T08:30:18.463Z,7.07
2023-03-16T08:32:51.496Z,7.18
2023-03-16T08:35:24.651Z,7.18
2023-03-16T08:37:57.968Z,7.20
2023-03-16T08:40:34.906Z,7.29
2023-03-16T08:43:08.314Z,7.31
2023-03-16T08:45:42.682Z,7.42
2023-03-16T08:48:15.938Z,7.39
2023-03-16T08:50:48.919Z,7.35
2023-03-16T08:53:22.686Z,7.38
2023-03-16T08:56:04.737Z,7.47
2023-03-16T08:58:39.036Z,7.52
2023-03-16T09:01:13.201Z,7.58
2023-03-16T09:03:46.857Z,7.60
2023-03-16T09:06:20.137Z,7.72
2023-03-16T09:08:54.074Z,7.60
2023-03-16T09:11:30.731Z,7.62
2023-03-16T09:14:04.386Z,7.77
2023-03-16T09:16:38.572Z,7.78
2023-03-16T09:19:11.824Z,7.92
2023-03-16T09:21:47.362Z,7.80
2023-03-16T09:24:20.839Z,7.71
2023-03-16T09:26:55.425Z,7.74
2023-03-16T09:29:28.648Z,7.66
2023-03-16T09:32:01.518Z,7.84
2023-03-16T09:34:35.033Z,7.85
2023-03-16T09:37:08.315Z,7.84
2023-03-16T09:39:42.200Z,7.92
2023-03-16T09:42:19.299Z,8.03
2023-03-16T09:44:57.903Z,8.06
2023-03-16T09:47:32.168Z,8.05
2023-03-16T09:50:07.183Z,8.12
2023-03-16T09:52:45.612Z,8.09
2023-03-16T09:55:25.315Z,8.10
2023-03-16T09:58:00.001Z,8.05
2023-03-16T10:00:37.760Z,8.17
2023-03-16T10:03:18.896Z,8.21
2023-03-16T10:05:56.296Z,8.12
2023-03-16T10:08:33.180Z,8.16
2023-03-16T10:11:18.013Z,8.16
2023-03-16T10:13:54.593Z,8.28
2023-03-16T10:16:32.724Z,8.24
2023-03-16T10:19:12.020Z,8.25
2023-03-16T10:21:45.238Z,8.14
2023-03-16T10:24:25.375Z,8.24
2023-03-16T10:27:04.937Z,8.32
2023-03-16T10:29:39.300Z,8.34
2023-03-16T10:32:13.914Z,8.30
2023-03-16T10:34:49.867Z,8.37
2023-03-16T10:37:25.520Z,8.35
2023-03-16T10:40:00.831Z,8.32
2023-03-16T10:42:37.161Z,8.30
2023-03-16T10:45:21.028Z,8.36
2023-03-16T10:47:54.134Z,8.31
2023-03-16T10:50:27.813Z,8.38
2023-03-16T10:53:01.957Z,8.44
2023-03-16T10:55:43.714Z,8.52
2023-03-16T10:58:25.224Z,8.62
2023-03-16T11:01:00.137Z,8.58
2023-03-16T11:03:39.457Z,8.62
2023-03-16T11:06:20.563Z,8.73
2023-03-16T11:08:54.977Z,8.76
2023-03-16T11:11:31.061Z,8.81
2023-03-16T11:14:05.928Z,8.83
2023-03-16T11:16:45.037Z,8.91
2023-03-16T11:19:21.399Z,8.92
2023-03-16T11:21:58.103Z,8.89
2023-03-16T11:24:34.739Z,8.90
2023-03-16T11:27:13.745Z,8.93
2023-03-16T11:29:52.743Z,8.98
2023-03-16T11:32:28.779Z,8.97
2023-03-16T11:35:04.578Z,8.95
2023-03-16T11:37:44.460Z,9.00
2023-03-16T11:40:21.856Z,8.99
2023-03-16T11:43:01.077Z,8.99
2023-03-16T11:45:38.295Z,9.04
2023-03-16T11:48:22.074Z,9.05
2023-03-16T11:51:00.192Z,9.01
2023-03-16T11:53:48.454Z,9.14
2023-03-16T11:56:27.364Z,9.17
2023-03-16T11:59:21.421Z,9.26
2023-03-16T12:02:03.097Z,9.38
2023-03-16T12:04:46.528Z,9.39
2023-03-16T12:07:27.514Z,9.43
2023-03-16T12:10:06.153Z,9.43
2023-03-16T12:12:44.375Z,9.50
2023-03-16T12:15:22.568Z,9.39
2023-03-16T12:17:57.564Z,9.22
2023-03-16T12:20:34.827Z,9.29
2023-03-16T12:23:12.082Z,9.24
2023-03-16T12:25:47.601Z,9.26
2023-03-16T12:28:25.449Z,9.18
2023-03-16T12:31:09.440Z,9.13
2023-03-16T12:33:47.768Z,9.14
2023-03-16T12:36:34.277Z,9.03
2023-03-16T12:39:09.273Z,9.03
2023-03-16T12:41:51.449Z,9.06
2023-03-16T12:44:29.511Z,9.02
2023-03-16T12:47:08.301Z,9.00
2023-03-16T12:49:41.815Z,8.81
2023-03-16T12:52:16.147Z,8.64
2023-03-16T12:54:53.107Z,8.70
2023-03-16T12:57:27.206Z,8.56
2023-03-16T13:00:02.012Z,8.45
2023-03-16T13:02:36.967Z,8.45
2023-03-16T13:05:10.873Z,8.39
2023-03-16T13:07:50.822Z,8.44
2023-03-16T13:10:24.052Z,8.47
2023-03-16T13:13:08.712Z,8.44
2023-03-16T13:15:42.610Z,8.38
2023-03-16T13:18:23.940Z,8.41
2023-03-16T13:20:58.248Z,7.92
2023-03-16T13:23:49.713Z,7.64
2023-03-16T13:26:40.558Z,7.66
2023-03-16T13:29:24.229Z,7.82
2023-03-16T13:31:58.919Z,7.56
2023-03-16T13:34:33.394Z,7.46
2023-03-16T13:37:14.482Z,7.67
2023-03-16T13:39:55.235Z,7.78
2023-03-16T13:42:31.546Z,7.62
2023-03-16T13:45:09.387Z,7.49
2023-03-16T13:47:44.205Z,7.60
2023-03-16T13:50:18.047Z,7.44
2023-03-16T13:52:54.466Z,7.56
2023-03-16T13:55:32.071Z,7.71
2023-03-16T13:58:05.865Z,7.66
2023-03-16T14:00:45.771Z,7.64
2023-03-16T14:03:22.001Z,7.72
2023-03-16T14:05:58.357Z,7.72
2023-03-16T14:08:32.728Z,7.72
2023-03-16T14:11:07.375Z,7.60
2023-03-16T14:13:40.751Z,7.51
2023-03-16T14:16:14.956Z,7.46
2023-03-16T14:18:49.360Z,7.29
2023-03-16T14:21:23.746Z,7.14
2023-03-16T14:23:59.133Z,6.90
2023-03-16T14:26:41.993Z,7.02
2023-03-16T14:29:17.606Z,7.07
2023-03-16T14:31:51.218Z,7.19
2023-03-16T14:34:29.068Z,7.27
2023-03-16T14:37:09.447Z,7.31
2023-03-16T14:39:43.518Z,7.28
2023-03-16T14:42:21.514Z,7.22
2023-03-16T14:44:55.784Z,7.16
2023-03-16T14:47:30.796Z,7.02
2023-03-16T14:50:08.026Z,7.02
2023-03-16T14:52:41.707Z,7.12
2023-03-16T14:55:17.582Z,7.07
2023-03-16T14:57:53.341Z,7.17
2023-03-16T15:00:26.679Z,7.18
2023-03-16T15:03:02.581Z,7.02
2023-03-16T15:05:37.559Z,6.94
2023-03-16T15:08:15.814Z,6.64
2023-03-16T15:10:50.839Z,6.83
2023-03-16T15:13:52.558Z,6.61
2023-03-16T15:16:26.375Z,6.60
2023-03-16T15:18:59.657Z,6.67
2023-03-16T15:21:32.952Z,6.54
2023-03-16T15:24:06.494Z,6.62
2023-03-16T15:26:39.489Z,6.54
2023-03-16T15:29:14.627Z,6.53
2023-03-16T15:31:47.756Z,6.54
2023-03-16T15:34:21.608Z,6.49
2023-03-16T15:36:56.380Z,6.36
2023-03-16T15:39:29.344Z,6.40
2023-03-16T15:42:02.229Z,6.29
2023-03-16T15:44:37.723Z,6.40
2023-03-16T15:47:11.197Z,6.54
2023-03-16T15:49:48.194Z,6.34
2023-03-16T15:52:26.748Z,6.37
2023-03-16T15:55:04.485Z,6.41
2023-03-16T15:57:37.531Z,6.32
2023-03-16T16:00:29.420Z,6.38
2023-03-16T16:03:03.266Z,6.28
2023-03-16T16:05:36.611Z,6.27
2023-03-16T16:08:09.714Z,6.14
2023-03-16T16:10:43.676Z,6.19
2023-03-16T16:13:19.271Z,6.13
2023-03-16T16:15:54.760Z,5.91
2023-03-16T16:18:30.352Z,5.68
2023-03-16T16:21:03.932Z,5.90
2023-03-16T16:23:37.676Z,5.80
2023-03-16T16:26:17.934Z,5.92
2023-03-16T16:28:51.423Z,5.99
2023-03-16T16:31:26.595Z,5.93
2023-03-16T16:34:00.134Z,6.00
2023-03-16T16:36:33.516Z,6.05
2023-03-16T16:39:06.761Z,5.95
2023-03-16T16:41:40.317Z,5.84
2023-03-16T16:44:16.988Z,5.84
2023-03-16T16:46:51.912Z,5.67
2023-03-16T16:49:26.391Z,5.87
2023-03-16T16:52:00.077Z,6.08
2023-03-16T16:54:33.540Z,5.88
2023-03-16T16:57:06.926Z,5.98
2023-03-16T16:59:39.994Z,5.80
2023-03-16T17:02:22.095Z,5.66
2023-03-16T17:04:55.149Z,5.60
2023-03-16T17:07:27.986Z,5.78
2023-03-16T17:10:01.276Z,5.90
2023-03-16T17:12:36.026Z,5.86
2023-03-16T17:15:19.280Z,5.79
2023-03-16T17:17:59.520Z,5.53
2023-03-16T17:20:32.732Z,5.60
2023-03-16T17:23:16.223Z,5.74
2023-03-16T17:25:49.480Z,5.62
2023-03-16T17:28:23.714Z,5.65
2023-03-16T17:30:57.158Z,5.62
2023-03-16T17:33:32.315Z,5.68
2023-03-16T17:36:05.666Z,5.67
2023-03-16T17:38:39.239Z,5.63
2023-03-16T17:41:20.831Z,5.62
2023-03-16T17:43:55.992Z,5.46
2023-03-16T17:46:30.864Z,5.58
2023-03-16T17:49:12.148Z,5.53
2023-03-16T17:51:45.835Z,5.70
2023-03-16T17:54:18.878Z,5.58
2023-03-16T17:56:53.027Z,5.67
2023-03-16T17:59:26.377Z,5.39
2023-03-16T18:01:59.632Z,5.36
2023-03-16T18:04:34.133Z,5.31
2023-03-16T18:07:11.816Z,5.58
2023-03-16T18:09:45.114Z,5.59
2023-03-16T18:12:18.797Z,5.50
2023-03-16T18:14:58.499Z,5.55
2023-03-16T18:17:32.414Z,5.44
2023-03-16T18:20:13.862Z,5.63
2023-03-16T18:22:47.915Z,5.70
2023-03-16T18:25:35.326Z,5.57
2023-03-16T18:28:11.094Z,5.49
2023-03-16T18:30:45.240Z,5.60
2023-03-16T18:33:24.961Z,5.65
2023-03-16T18:36:00.464Z,5.36
2023-03-16T18:38:34.700Z,5.43
2023-03-16T18:41:15.934Z,5.43
2023-03-16T18:43:50.788Z,5.33
2023-03-16T18:46:25.470Z,5.52
2023-03-16T18:48:59.832Z,5.52
2023-03-16T18:51:34.784Z,5.43
2023-03-16T18:54:20.532Z,5.28
2023-03-16T18:56:54.174Z,5.22
2023-03-16T18:59:27.355Z,5.49
2023-03-16T19:02:00.628Z,5.32
2023-03-16T19:04:34.249Z,5.25
2023-03-16T19:07:13.431Z,5.41
2023-03-16T19:09:46.358Z,5.39
2023-03-16T19:12:21.281Z,5.32
2023-03-16T19:14:54.919Z,5.39
2023-03-16T19:17:28.454Z,5.47
2023-03-16T19:20:01.760Z,5.44
2023-03-16T19:22:36.544Z,5.30
2023-03-16T19:25:15.860Z,5.34
2023-03-16T19:27:48.920Z,5.32
2023-03-16T19:30:24.249Z,5.18
2023-03-16T19:32:58.301Z,5.25
2023-03-16T19:35:50.389Z,5.31
2023-03-16T19:38:26.525Z,5.31
2023-03-16T19:41:00.596Z,5.28
2023-03-16T19:43:33.523Z,5.37
2023-03-16T19:46:06.749Z,5.53
2023-03-16T19:48:40.185Z,5.34
2023-03-16T19:51:13.939Z,5.12
2023-03-16T19:53:48.674Z,5.27
2023-03-16T19:56:25.596Z,5.17
2023-03-16T19:58:59.869Z,5.22
2023-03-16T20:01:33.664Z,5.19
2023-03-16T20:04:07.783Z,5.14
2023-03-16T20:06:41.145Z,5.25
2023-03-16T20:09:15.807Z,5.22
2023-03-16T20:11:49.822Z,5.07
2023-03-16T20:14:27.830Z,5.15
2023-03-16T20:17:01.597Z,5.22
2023-03-16T20:19:34.937Z,5.06
2023-03-16T20:22:13.342Z,5.15
2023-03-16T20:24:48.682Z,5.09
2023-03-16T20:27:23.267Z,5.24
2023-03-16T20:29:56.334Z,5.11
2023-03-16T20:32:35.136Z,5.04
2023-03-16T20:35:15.039Z,5.11
2023-03-16T20:37:48.410Z,5.41
2023-03-16T20:40:23.059Z,5.40
2023-03-16T20:42:56.560Z,5.30
2023-03-16T20:45:30.634Z,5.26
2023-03-16T20:48:04.226Z,5.41
2023-03-16T20:50:37.352Z,5.27
2023-03-16T20:53:10.872Z,5.32
2023-03-16T20:55:45.319Z,5.27
2023-03-16T20:58:20.517Z,5.18
2023-03-16T21:00:57.663Z,5.21
2023-03-16T21:03:33.434Z,5.08
2023-03-16T21:06:07.796Z,5.12
2023-03-16T21:08:40.996Z,5.08
2023-03-16T21:11:20.183Z,5.11
2023-03-16T21:13:54.630Z,4.92
2023-03-16T21:16:29.026Z,5.16
2023-03-16T21:19:02.059Z,5.16
2023-03-16T21:21:35.137Z,5.14
2023-03-16T21:24:09.204Z,5.15
2023-03-16T21:26:43.979Z,4.98
2023-03-16T21:29:21.348Z,5.13
2023-03-16T21:31:54.769Z,5.08
2023-03-16T21:34:30.924Z,4.82
2023-03-16T21:37:04.254Z,4.98
2023-03-16T21:39:37.174Z,5.00
2023-03-16T21:42:12.054Z,4.94
2023-03-16T21:44:44.980Z,5.01
2023-03-16T21:47:24.137Z,5.09
2023-03-16T21:49:59.233Z,5.07
2023-03-16T21:52:32.353Z,5.00
2023-03-16T21:55:07.370Z,5.09
2023-03-16T21:57:42.276Z,5.05
2023-03-16T22:00:23.428Z,5.08
2023-03-16T22:02:58.720Z,5.09
2023-03-16T22:05:36.536Z,5.08
2023-03-16T22:08:14.169Z,5.08
2023-03-16T22:10:47.423Z,4.88
2023-03-16T22:13:23.907Z,4.81
2023-03-16T22:15:58.543Z,4.89
2023-03-16T22:18:33.459Z,4.98
2023-03-16T22:21:16.583Z,4.79
2023-03-16T22:23:49.726Z,4.90
2023-03-16T22:26:23.577Z,5.06
2023-03-16T22:28:58.251Z,5.04
2023-03-16T22:31:33.608Z,5.03
2023-03-16T22:34:07.761Z,5.12
2023-03-16T22:36:41.204Z,4.87
2023-03-16T22:39:15.194Z,4.95
2023-03-16T22:41:48.589Z,4.82
2023-03-16T22:44:24.656Z,4.89
2023-03-16T22:46:57.589Z,4.86
2023-03-16T22:49:30.863Z,4.93
2023-03-16T22:52:04.135Z,4.90
2023-03-16T22:54:37.127Z,4.85
2023-03-16T22:57:13.176Z,4.91
2023-03-16T22:59:48.394Z,4.90
2023-03-16T23:02:25.431Z,4.81
2023-03-16T23:04:58.532Z,4.87
2023-03-16T23:07:31.710Z,4.86
2023-03-16T23:10:05.109Z,4.90
2023-03-16T23:12:39.043Z,4.89
2023-03-16T23:15:18.503Z,4.90
2023-03-16T23:17:53.067Z,4.94
2023-03-16T23:20:27.950Z,4.96
2023-03-16T23:23:01.350Z,4.86
2023-03-16T23:25:34.420Z,4.86
2023-03-16T23:28:07.576Z,4.81
2023-03-16T23:30:42.224Z,4.88
2023-03-16T23:33:15.292Z,4.81
2023-03-16T23:35:48.243Z,4.82
2023-03-16T23:38:21.260Z,4.86
2023-03-16T23:40:54.220Z,4.78
2023-03-16T23:43:30.403Z,4.63
2023-03-16T23:46:06.000Z,4.74
2023-03-16T23:48:39.354Z,4.74
2023-03-16T23:51:20.362Z,4.74
2023-03-16T23:53:53.438Z,4.78
2023-03-16T23:56:27.135Z,4.68
2023-03-16T23:59:00.490Z,4.68
